sensor_id;sensor_type;location;lat;lon;timestamp;P1;durP1;ratioP1;P2;durP2;ratioP2
72132;SDS011;60008;50.826;6.896;2023-05-27T00:01:54;8.48;;;2.60;;
72132;SDS011;60008;50.826;6.896;2023-05-27T00:04:45;9.50;;;2.30;;
72132;SDS011;60008;50.826;6.896;2023-05-27T00:07:30;12.93;;;2.53;;
72132;SDS011;60008;50.826;6.896;2023-05-27T00:10:22;12.55;;;2.63;;
72132;SDS011;60008;50.826;6.896;2023-05-27T00:13:07;11.25;;;2.90;;
72132;SDS011;60008;50.826;6.896;2023-05-27T00:15:59;9.05;;;2.40;;
72132;SDS011;60008;50.826;6.896;2023-05-27T00:18:44;10.40;;;2.10;;
72132;SDS011;60008;50.826;6.896;2023-05-27T00:21:35;12.70;;;2.38;;
72132;SDS011;60008;50.826;6.896;2023-05-27T00:24:21;10.90;;;2.53;;
72132;SDS011;60008;50.826;6.896;2023-05-27T00:27:18;16.25;;;3.75;;
72132;SDS011;60008;50.826;6.896;2023-05-27T00:30:04;12.00;;;2.30;;
72132;SDS011;60008;50.826;6.896;2023-05-27T00:32:56;10.10;;;2.40;;
72132;SDS011;60008;50.826;6.896;2023-05-27T00:35:41;13.05;;;3.05;;
72132;SDS011;60008;50.826;6.896;2023-05-27T00:38:33;9.95;;;2.40;;
72132;SDS011;60008;50.826;6.896;2023-05-27T00:41:18;11.88;;;2.35;;
72132;SDS011;60008;50.826;6.896;2023-05-27T00:44:10;14.40;;;2.97;;
72132;SDS011;60008;50.826;6.896;2023-05-27T00:46:55;13.07;;;2.60;;
72132;SDS011;60008;50.826;6.896;2023-05-27T00:49:47;9.95;;;2.40;;
72132;SDS011;60008;50.826;6.896;2023-05-27T00:52:33;12.32;;;2.58;;
72132;SDS011;60008;50.826;6.896;2023-05-27T00:55:24;9.25;;;2.53;;
72132;SDS011;60008;50.826;6.896;2023-05-27T00:58:09;14.85;;;2.65;;
72132;SDS011;60008;50.826;6.896;2023-05-27T01:01:01;10.50;;;2.77;;
72132;SDS011;60008;50.826;6.896;2023-05-27T01:03:47;11.05;;;2.85;;
72132;SDS011;60008;50.826;6.896;2023-05-27T01:12:47;10.52;;;2.78;;
72132;SDS011;60008;50.826;6.896;2023-05-27T01:15:39;7.30;;;2.27;;
72132;SDS011;60008;50.826;6.896;2023-05-27T01:18:32;10.15;;;2.58;;
72132;SDS011;60008;50.826;6.896;2023-05-27T01:21:25;11.82;;;2.58;;
72132;SDS011;60008;50.826;6.896;2023-05-27T01:24:14;10.93;;;2.70;;
72132;SDS011;60008;50.826;6.896;2023-05-27T01:27:06;14.57;;;2.55;;
72132;SDS011;60008;50.826;6.896;2023-05-27T01:29:59;7.80;;;2.43;;
72132;SDS011;60008;50.826;6.896;2023-05-27T01:32:51;10.63;;;2.75;;
72132;SDS011;60008;50.826;6.896;2023-05-27T01:38:45;11.60;;;2.38;;
72132;SDS011;60008;50.826;6.896;2023-05-27T01:41:39;12.55;;;3.10;;
72132;SDS011;60008;50.826;6.896;2023-05-27T01:44:35;12.37;;;2.63;;
72132;SDS011;60008;50.826;6.896;2023-05-27T01:47:21;11.35;;;2.88;;
72132;SDS011;60008;50.826;6.896;2023-05-27T01:50:12;11.70;;;2.70;;
72132;SDS011;60008;50.826;6.896;2023-05-27T01:53:04;12.30;;;3.05;;
72132;SDS011;60008;50.826;6.896;2023-05-27T01:55:51;12.60;;;2.88;;
72132;SDS011;60008;50.826;6.896;2023-05-27T01:58:42;12.03;;;2.37;;
72132;SDS011;60008;50.826;6.896;2023-05-27T02:01:27;10.48;;;2.85;;
72132;SDS011;60008;50.826;6.896;2023-05-27T02:04:19;10.98;;;2.80;;
72132;SDS011;60008;50.826;6.896;2023-05-27T02:07:04;13.68;;;2.55;;
72132;SDS011;60008;50.826;6.896;2023-05-27T02:09:56;12.20;;;2.60;;
72132;SDS011;60008;50.826;6.896;2023-05-27T02:12:41;10.10;;;2.20;;
72132;SDS011;60008;50.826;6.896;2023-05-27T02:15:32;11.68;;;2.67;;
72132;SDS011;60008;50.826;6.896;2023-05-27T02:18:23;9.07;;;2.65;;
72132;SDS011;60008;50.826;6.896;2023-05-27T02:21:16;11.45;;;2.30;;
72132;SDS011;60008;50.826;6.896;2023-05-27T02:24:08;11.73;;;2.47;;
72132;SDS011;60008;50.826;6.896;2023-05-27T02:26:53;14.90;;;3.50;;
72132;SDS011;60008;50.826;6.896;2023-05-27T02:29:57;9.40;;;2.47;;
72132;SDS011;60008;50.826;6.896;2023-05-27T02:32:49;7.82;;;2.50;;
72132;SDS011;60008;50.826;6.896;2023-05-27T02:35:42;11.23;;;2.65;;
72132;SDS011;60008;50.826;6.896;2023-05-27T02:38:34;11.73;;;2.63;;
72132;SDS011;60008;50.826;6.896;2023-05-27T02:41:19;14.30;;;2.73;;
72132;SDS011;60008;50.826;6.896;2023-05-27T02:44:11;11.10;;;2.42;;
72132;SDS011;60008;50.826;6.896;2023-05-27T02:46:56;14.70;;;3.05;;
72132;SDS011;60008;50.826;6.896;2023-05-27T02:49:47;9.63;;;2.90;;
72132;SDS011;60008;50.826;6.896;2023-05-27T02:52:32;12.02;;;3.45;;
72132;SDS011;60008;50.826;6.896;2023-05-27T02:55:23;10.90;;;2.90;;
72132;SDS011;60008;50.826;6.896;2023-05-27T02:58:08;13.70;;;2.70;;
72132;SDS011;60008;50.826;6.896;2023-05-27T03:00:59;11.60;;;3.00;;
72132;SDS011;60008;50.826;6.896;2023-05-27T03:03:50;10.48;;;2.45;;
72132;SDS011;60008;50.826;6.896;2023-05-27T03:06:35;7.70;;;2.55;;
72132;SDS011;60008;50.826;6.896;2023-05-27T03:09:27;10.87;;;2.80;;
72132;SDS011;60008;50.826;6.896;2023-05-27T03:12:13;8.85;;;2.53;;
72132;SDS011;60008;50.826;6.896;2023-05-27T03:15:04;12.68;;;3.30;;
72132;SDS011;60008;50.826;6.896;2023-05-27T03:17:50;6.95;;;2.60;;
72132;SDS011;60008;50.826;6.896;2023-05-27T03:20:43;8.60;;;2.60;;
72132;SDS011;60008;50.826;6.896;2023-05-27T03:23:34;5.20;;;2.43;;
72132;SDS011;60008;50.826;6.896;2023-05-27T03:26:19;9.77;;;2.45;;
72132;SDS011;60008;50.826;6.896;2023-05-27T03:29:25;9.80;;;2.50;;
72132;SDS011;60008;50.826;6.896;2023-05-27T03:32:10;8.98;;;2.63;;
72132;SDS011;60008;50.826;6.896;2023-05-27T03:35:02;13.00;;;2.90;;
72132;SDS011;60008;50.826;6.896;2023-05-27T03:37:47;8.23;;;2.63;;
72132;SDS011;60008;50.826;6.896;2023-05-27T03:40:38;10.32;;;2.65;;
72132;SDS011;60008;50.826;6.896;2023-05-27T03:43:23;15.02;;;3.08;;
72132;SDS011;60008;50.826;6.896;2023-05-27T03:46:14;12.50;;;3.20;;
72132;SDS011;60008;50.826;6.896;2023-05-27T03:48:59;13.68;;;3.65;;
72132;SDS011;60008;50.826;6.896;2023-05-27T03:51:52;12.80;;;3.83;;
72132;SDS011;60008;50.826;6.896;2023-05-27T03:54:37;15.15;;;3.83;;
72132;SDS011;60008;50.826;6.896;2023-05-27T03:57:28;10.52;;;3.70;;
72132;SDS011;60008;50.826;6.896;2023-05-27T04:00:19;10.48;;;3.05;;
72132;SDS011;60008;50.826;6.896;2023-05-27T04:03:04;10.18;;;2.72;;
72132;SDS011;60008;50.826;6.896;2023-05-27T04:05:57;9.73;;;2.70;;
72132;SDS011;60008;50.826;6.896;2023-05-27T04:08:43;12.07;;;2.47;;
72132;SDS011;60008;50.826;6.896;2023-05-27T04:11:35;11.98;;;2.85;;
72132;SDS011;60008;50.826;6.896;2023-05-27T04:14:20;12.32;;;2.65;;
72132;SDS011;60008;50.826;6.896;2023-05-27T04:17:12;8.27;;;2.50;;
72132;SDS011;60008;50.826;6.896;2023-05-27T04:20:04;12.23;;;2.60;;
72132;SDS011;60008;50.826;6.896;2023-05-27T04:22:59;11.65;;;2.80;;
72132;SDS011;60008;50.826;6.896;2023-05-27T04:25:50;13.52;;;2.90;;
72132;SDS011;60008;50.826;6.896;2023-05-27T04:28:47;11.40;;;2.90;;
72132;SDS011;60008;50.826;6.896;2023-05-27T04:31:39;11.85;;;3.00;;
72132;SDS011;60008;50.826;6.896;2023-05-27T04:34:30;15.80;;;3.50;;
72132;SDS011;60008;50.826;6.896;2023-05-27T04:37:21;10.52;;;2.60;;
72132;SDS011;60008;50.826;6.896;2023-05-27T04:40:06;26.40;;;4.72;;
72132;SDS011;60008;50.826;6.896;2023-05-27T04:42:59;24.15;;;6.38;;
72132;SDS011;60008;50.826;6.896;2023-05-27T04:45:46;30.42;;;5.57;;
72132;SDS011;60008;50.826;6.896;2023-05-27T04:48:37;19.30;;;4.53;;
72132;SDS011;60008;50.826;6.896;2023-05-27T04:51:22;16.92;;;4.03;;
72132;SDS011;60008;50.826;6.896;2023-05-27T04:54:13;11.90;;;3.25;;
72132;SDS011;60008;50.826;6.896;2023-05-27T04:56:58;14.18;;;3.90;;
72132;SDS011;60008;50.826;6.896;2023-05-27T04:59:50;14.48;;;3.28;;
72132;SDS011;60008;50.826;6.896;2023-05-27T05:02:47;16.10;;;3.83;;
72132;SDS011;60008;50.826;6.896;2023-05-27T05:05:39;18.23;;;4.30;;
72132;SDS011;60008;50.826;6.896;2023-05-27T05:08:25;15.43;;;4.55;;
72132;SDS011;60008;50.826;6.896;2023-05-27T05:11:17;22.92;;;5.47;;
72132;SDS011;60008;50.826;6.896;2023-05-27T05:14:02;18.45;;;5.45;;
72132;SDS011;60008;50.826;6.896;2023-05-27T05:16:54;14.97;;;4.23;;
72132;SDS011;60008;50.826;6.896;2023-05-27T05:19:39;17.20;;;4.30;;
72132;SDS011;60008;50.826;6.896;2023-05-27T05:22:31;14.43;;;4.45;;
72132;SDS011;60008;50.826;6.896;2023-05-27T05:25:17;15.98;;;4.38;;
72132;SDS011;60008;50.826;6.896;2023-05-27T05:28:08;11.90;;;3.60;;
72132;SDS011;60008;50.826;6.896;2023-05-27T05:31:00;14.10;;;3.27;;
72132;SDS011;60008;50.826;6.896;2023-05-27T05:33:52;13.73;;;3.45;;
72132;SDS011;60008;50.826;6.896;2023-05-27T05:36:37;10.75;;;3.25;;
72132;SDS011;60008;50.826;6.896;2023-05-27T05:39:30;10.55;;;3.80;;
72132;SDS011;60008;50.826;6.896;2023-05-27T05:42:15;14.95;;;3.42;;
72132;SDS011;60008;50.826;6.896;2023-05-27T05:45:07;16.03;;;3.67;;
72132;SDS011;60008;50.826;6.896;2023-05-27T05:47:53;14.50;;;3.17;;
72132;SDS011;60008;50.826;6.896;2023-05-27T05:50:44;11.48;;;3.10;;
72132;SDS011;60008;50.826;6.896;2023-05-27T05:53:30;12.27;;;2.80;;
72132;SDS011;60008;50.826;6.896;2023-05-27T05:56:24;13.65;;;3.15;;
72132;SDS011;60008;50.826;6.896;2023-05-27T05:59:10;14.67;;;3.23;;
72132;SDS011;60008;50.826;6.896;2023-05-27T06:02:01;11.27;;;2.95;;
72132;SDS011;60008;50.826;6.896;2023-05-27T06:04:46;9.98;;;3.05;;
72132;SDS011;60008;50.826;6.896;2023-05-27T06:07:39;18.27;;;3.10;;
72132;SDS011;60008;50.826;6.896;2023-05-27T06:10:23;11.82;;;2.83;;
72132;SDS011;60008;50.826;6.896;2023-05-27T06:13:16;10.30;;;2.80;;
72132;SDS011;60008;50.826;6.896;2023-05-27T06:16:01;9.48;;;2.55;;
72132;SDS011;60008;50.826;6.896;2023-05-27T06:18:54;17.35;;;3.20;;
72132;SDS011;60008;50.826;6.896;2023-05-27T06:21:39;12.93;;;3.13;;
72132;SDS011;60008;50.826;6.896;2023-05-27T06:24:32;14.25;;;3.20;;
72132;SDS011;60008;50.826;6.896;2023-05-27T06:27:17;15.13;;;3.40;;
72132;SDS011;60008;50.826;6.896;2023-05-27T06:30:08;12.32;;;3.00;;
72132;SDS011;60008;50.826;6.896;2023-05-27T06:33:00;11.00;;;2.60;;
72132;SDS011;60008;50.826;6.896;2023-05-27T06:35:46;15.70;;;3.30;;
72132;SDS011;60008;50.826;6.896;2023-05-27T06:38:37;11.27;;;2.63;;
72132;SDS011;60008;50.826;6.896;2023-05-27T06:41:29;15.93;;;2.97;;
72132;SDS011;60008;50.826;6.896;2023-05-27T06:44:20;15.45;;;2.75;;
72132;SDS011;60008;50.826;6.896;2023-05-27T06:47:05;12.93;;;2.58;;
72132;SDS011;60008;50.826;6.896;2023-05-27T06:49:56;11.07;;;3.10;;
72132;SDS011;60008;50.826;6.896;2023-05-27T06:52:48;12.70;;;2.97;;
72132;SDS011;60008;50.826;6.896;2023-05-27T06:55:33;8.87;;;2.40;;
72132;SDS011;60008;50.826;6.896;2023-05-27T06:58:25;13.77;;;4.00;;
72132;SDS011;60008;50.826;6.896;2023-05-27T07:01:09;11.35;;;2.45;;
72132;SDS011;60008;50.826;6.896;2023-05-27T07:04:01;11.70;;;2.88;;
72132;SDS011;60008;50.826;6.896;2023-05-27T07:06:47;7.47;;;2.50;;
72132;SDS011;60008;50.826;6.896;2023-05-27T07:09:38;10.37;;;2.60;;
72132;SDS011;60008;50.826;6.896;2023-05-27T07:12:30;12.10;;;4.38;;
72132;SDS011;60008;50.826;6.896;2023-05-27T07:15:15;9.80;;;3.13;;
72132;SDS011;60008;50.826;6.896;2023-05-27T07:18:07;11.20;;;3.55;;
72132;SDS011;60008;50.826;6.896;2023-05-27T07:20:58;14.57;;;2.60;;
72132;SDS011;60008;50.826;6.896;2023-05-27T07:23:43;8.63;;;2.70;;
72132;SDS011;60008;50.826;6.896;2023-05-27T07:26:41;12.70;;;2.90;;
72132;SDS011;60008;50.826;6.896;2023-05-27T07:29:40;10.45;;;2.50;;
72132;SDS011;60008;50.826;6.896;2023-05-27T07:32:31;11.77;;;2.83;;
72132;SDS011;60008;50.826;6.896;2023-05-27T07:35:17;13.15;;;3.10;;
72132;SDS011;60008;50.826;6.896;2023-05-27T07:38:09;10.37;;;2.53;;
72132;SDS011;60008;50.826;6.896;2023-05-27T07:40:55;11.63;;;2.92;;
72132;SDS011;60008;50.826;6.896;2023-05-27T07:43:46;12.35;;;3.25;;
72132;SDS011;60008;50.826;6.896;2023-05-27T07:46:31;11.70;;;3.40;;
72132;SDS011;60008;50.826;6.896;2023-05-27T07:49:24;11.35;;;3.42;;
72132;SDS011;60008;50.826;6.896;2023-05-27T07:52:09;13.37;;;3.60;;
72132;SDS011;60008;50.826;6.896;2023-05-27T07:55:00;16.02;;;3.55;;
72132;SDS011;60008;50.826;6.896;2023-05-27T07:57:45;10.45;;;3.05;;
72132;SDS011;60008;50.826;6.896;2023-05-27T08:00:37;12.77;;;3.83;;
72132;SDS011;60008;50.826;6.896;2023-05-27T08:03:28;12.85;;;4.15;;
72132;SDS011;60008;50.826;6.896;2023-05-27T08:06:15;9.57;;;3.00;;
72132;SDS011;60008;50.826;6.896;2023-05-27T08:09:07;9.15;;;4.03;;
72132;SDS011;60008;50.826;6.896;2023-05-27T08:11:52;8.77;;;3.65;;
72132;SDS011;60008;50.826;6.896;2023-05-27T08:14:45;11.23;;;3.75;;
72132;SDS011;60008;50.826;6.896;2023-05-27T08:17:30;10.55;;;3.65;;
72132;SDS011;60008;50.826;6.896;2023-05-27T08:20:21;10.80;;;3.60;;
72132;SDS011;60008;50.826;6.896;2023-05-27T08:23:07;10.43;;;3.55;;
72132;SDS011;60008;50.826;6.896;2023-05-27T08:25:58;11.43;;;4.25;;
72132;SDS011;60008;50.826;6.896;2023-05-27T08:28:49;9.05;;;3.92;;
72132;SDS011;60008;50.826;6.896;2023-05-27T08:31:41;9.27;;;3.50;;
72132;SDS011;60008;50.826;6.896;2023-05-27T08:34:32;11.83;;;3.40;;
72132;SDS011;60008;50.826;6.896;2023-05-27T08:37:17;8.63;;;3.50;;
72132;SDS011;60008;50.826;6.896;2023-05-27T08:40:14;10.65;;;3.17;;
72132;SDS011;60008;50.826;6.896;2023-05-27T08:43:09;11.48;;;3.83;;
72132;SDS011;60008;50.826;6.896;2023-05-27T08:46:02;11.23;;;3.70;;
72132;SDS011;60008;50.826;6.896;2023-05-27T08:48:55;11.38;;;4.18;;
72132;SDS011;60008;50.826;6.896;2023-05-27T08:51:46;9.33;;;3.50;;
72132;SDS011;60008;50.826;6.896;2023-05-27T08:54:38;11.20;;;3.55;;
72132;SDS011;60008;50.826;6.896;2023-05-27T08:57:28;13.95;;;3.80;;
72132;SDS011;60008;50.826;6.896;2023-05-27T09:00:20;10.30;;;3.85;;
72132;SDS011;60008;50.826;6.896;2023-05-27T09:03:12;12.13;;;3.67;;
72132;SDS011;60008;50.826;6.896;2023-05-27T09:06:04;10.63;;;3.90;;
72132;SDS011;60008;50.826;6.896;2023-05-27T09:08:56;9.33;;;3.60;;
72132;SDS011;60008;50.826;6.896;2023-05-27T09:11:41;11.23;;;3.63;;
72132;SDS011;60008;50.826;6.896;2023-05-27T09:14:33;12.02;;;3.70;;
72132;SDS011;60008;50.826;6.896;2023-05-27T09:17:19;11.98;;;3.70;;
72132;SDS011;60008;50.826;6.896;2023-05-27T09:20:13;12.95;;;4.03;;
72132;SDS011;60008;50.826;6.896;2023-05-27T09:22:59;11.63;;;3.80;;
72132;SDS011;60008;50.826;6.896;2023-05-27T09:25:52;14.85;;;4.13;;
72132;SDS011;60008;50.826;6.896;2023-05-27T09:28:38;9.95;;;3.30;;
72132;SDS011;60008;50.826;6.896;2023-05-27T09:31:40;8.60;;;3.30;;
72132;SDS011;60008;50.826;6.896;2023-05-27T09:34:26;10.88;;;4.10;;
72132;SDS011;60008;50.826;6.896;2023-05-27T09:37:24;12.87;;;3.77;;
72132;SDS011;60008;50.826;6.896;2023-05-27T09:40:10;11.57;;;4.20;;
72132;SDS011;60008;50.826;6.896;2023-05-27T09:43:05;9.63;;;3.35;;
72132;SDS011;60008;50.826;6.896;2023-05-27T09:45:50;9.85;;;3.72;;
72132;SDS011;60008;50.826;6.896;2023-05-27T09:48:44;9.77;;;3.40;;
72132;SDS011;60008;50.826;6.896;2023-05-27T09:51:29;10.55;;;3.63;;
72132;SDS011;60008;50.826;6.896;2023-05-27T09:54:22;8.47;;;4.07;;
72132;SDS011;60008;50.826;6.896;2023-05-27T09:57:08;10.18;;;3.70;;
72132;SDS011;60008;50.826;6.896;2023-05-27T10:00:03;12.27;;;3.45;;
72132;SDS011;60008;50.826;6.896;2023-05-27T10:03:02;9.00;;;3.30;;
72132;SDS011;60008;50.826;6.896;2023-05-27T10:05:54;13.50;;;4.05;;
72132;SDS011;60008;50.826;6.896;2023-05-27T10:08:47;11.63;;;3.80;;
72132;SDS011;60008;50.826;6.896;2023-05-27T10:11:39;9.13;;;3.73;;
72132;SDS011;60008;50.826;6.896;2023-05-27T10:14:25;9.05;;;3.70;;
72132;SDS011;60008;50.826;6.896;2023-05-27T10:17:16;10.20;;;3.60;;
72132;SDS011;60008;50.826;6.896;2023-05-27T10:20:01;8.23;;;3.10;;
72132;SDS011;60008;50.826;6.896;2023-05-27T10:22:54;9.55;;;3.30;;
72132;SDS011;60008;50.826;6.896;2023-05-27T10:28:50;10.00;;;3.33;;
72132;SDS011;60008;50.826;6.896;2023-05-27T10:31:35;8.65;;;3.22;;
72132;SDS011;60008;50.826;6.896;2023-05-27T10:34:37;10.73;;;3.08;;
72132;SDS011;60008;50.826;6.896;2023-05-27T10:37:22;10.25;;;3.50;;
72132;SDS011;60008;50.826;6.896;2023-05-27T10:40:23;11.73;;;3.27;;
72132;SDS011;60008;50.826;6.896;2023-05-27T10:43:18;7.90;;;3.33;;
72132;SDS011;60008;50.826;6.896;2023-05-27T10:46:11;7.82;;;3.00;;
72132;SDS011;60008;50.826;6.896;2023-05-27T10:48:57;6.88;;;3.20;;
72132;SDS011;60008;50.826;6.896;2023-05-27T10:54:59;11.70;;;3.15;;
72132;SDS011;60008;50.826;6.896;2023-05-27T10:57:52;8.17;;;3.53;;
72132;SDS011;60008;50.826;6.896;2023-05-27T11:00:38;8.15;;;2.75;;
72132;SDS011;60008;50.826;6.896;2023-05-27T11:03:33;10.10;;;3.58;;
72132;SDS011;60008;50.826;6.896;2023-05-27T11:06:18;9.45;;;2.90;;
72132;SDS011;60008;50.826;6.896;2023-05-27T11:09:09;7.03;;;2.85;;
72132;SDS011;60008;50.826;6.896;2023-05-27T11:12:02;8.73;;;2.93;;
72132;SDS011;60008;50.826;6.896;2023-05-27T11:14:57;8.33;;;2.80;;
72132;SDS011;60008;50.826;6.896;2023-05-27T11:17:49;28.80;;;12.63;;
72132;SDS011;60008;50.826;6.896;2023-05-27T11:20:35;10.48;;;4.40;;
72132;SDS011;60008;50.826;6.896;2023-05-27T11:23:40;8.27;;;2.78;;
72132;SDS011;60008;50.826;6.896;2023-05-27T11:26:35;9.23;;;2.80;;
72132;SDS011;60008;50.826;6.896;2023-05-27T11:29:34;7.33;;;2.67;;
72132;SDS011;60008;50.826;6.896;2023-05-27T11:32:26;9.52;;;3.08;;
72132;SDS011;60008;50.826;6.896;2023-05-27T11:35:18;7.97;;;2.70;;
72132;SDS011;60008;50.826;6.896;2023-05-27T11:38:03;10.52;;;2.95;;
72132;SDS011;60008;50.826;6.896;2023-05-27T11:40:54;10.45;;;3.30;;
72132;SDS011;60008;50.826;6.896;2023-05-27T11:43:49;7.53;;;2.67;;
72132;SDS011;60008;50.826;6.896;2023-05-27T11:46:42;7.72;;;2.13;;
72132;SDS011;60008;50.826;6.896;2023-05-27T11:49:28;8.20;;;2.08;;
72132;SDS011;60008;50.826;6.896;2023-05-27T11:52:19;8.68;;;2.83;;
72132;SDS011;60008;50.826;6.896;2023-05-27T11:55:13;7.95;;;3.05;;
72132;SDS011;60008;50.826;6.896;2023-05-27T11:58:05;9.53;;;2.70;;
72132;SDS011;60008;50.826;6.896;2023-05-27T12:00:50;7.45;;;2.35;;
72132;SDS011;60008;50.826;6.896;2023-05-27T12:03:41;7.25;;;2.25;;
72132;SDS011;60008;50.826;6.896;2023-05-27T12:06:33;5.60;;;2.10;;
72132;SDS011;60008;50.826;6.896;2023-05-27T12:09:18;7.97;;;2.75;;
72132;SDS011;60008;50.826;6.896;2023-05-27T12:12:10;7.37;;;2.53;;
72132;SDS011;60008;50.826;6.896;2023-05-27T12:15:02;5.35;;;1.73;;
72132;SDS011;60008;50.826;6.896;2023-05-27T12:17:54;10.38;;;2.40;;
72132;SDS011;60008;50.826;6.896;2023-05-27T12:21:02;6.88;;;2.40;;
72132;SDS011;60008;50.826;6.896;2023-05-27T12:24:00;6.47;;;1.90;;
72132;SDS011;60008;50.826;6.896;2023-05-27T12:26:58;8.23;;;2.50;;
72132;SDS011;60008;50.826;6.896;2023-05-27T12:29:56;9.15;;;2.53;;
72132;SDS011;60008;50.826;6.896;2023-05-27T12:32:49;6.88;;;2.60;;
72132;SDS011;60008;50.826;6.896;2023-05-27T12:35:34;7.32;;;2.25;;
72132;SDS011;60008;50.826;6.896;2023-05-27T12:38:25;6.50;;;2.10;;
72132;SDS011;60008;50.826;6.896;2023-05-27T12:41:17;7.70;;;2.37;;
72132;SDS011;60008;50.826;6.896;2023-05-27T12:44:02;5.65;;;2.20;;
72132;SDS011;60008;50.826;6.896;2023-05-27T12:46:54;6.40;;;2.10;;
72132;SDS011;60008;50.826;6.896;2023-05-27T12:49:39;7.10;;;2.20;;
72132;SDS011;60008;50.826;6.896;2023-05-27T12:52:30;7.55;;;2.10;;
72132;SDS011;60008;50.826;6.896;2023-05-27T12:55:15;6.13;;;2.07;;
72132;SDS011;60008;50.826;6.896;2023-05-27T12:58:08;6.93;;;2.03;;
72132;SDS011;60008;50.826;6.896;2023-05-27T13:00:54;5.70;;;2.08;;
72132;SDS011;60008;50.826;6.896;2023-05-27T13:03:45;5.70;;;2.30;;
72132;SDS011;60008;50.826;6.896;2023-05-27T13:06:30;5.72;;;2.15;;
72132;SDS011;60008;50.826;6.896;2023-05-27T13:09:21;8.97;;;1.83;;
72132;SDS011;60008;50.826;6.896;2023-05-27T13:12:06;6.65;;;2.08;;
72132;SDS011;60008;50.826;6.896;2023-05-27T13:14:58;6.75;;;2.20;;
72132;SDS011;60008;50.826;6.896;2023-05-27T13:17:45;8.55;;;2.08;;
72132;SDS011;60008;50.826;6.896;2023-05-27T13:20:36;7.32;;;2.20;;
72132;SDS011;60008;50.826;6.896;2023-05-27T13:23:28;5.07;;;1.80;;
72132;SDS011;60008;50.826;6.896;2023-05-27T13:26:20;8.15;;;1.80;;
72132;SDS011;60008;50.826;6.896;2023-05-27T13:29:13;5.78;;;2.08;;
72132;SDS011;60008;50.826;6.896;2023-05-27T13:32:04;6.22;;;2.00;;
72132;SDS011;60008;50.826;6.896;2023-05-27T13:34:51;6.30;;;2.10;;
72132;SDS011;60008;50.826;6.896;2023-05-27T13:37:43;6.17;;;2.07;;
72132;SDS011;60008;50.826;6.896;2023-05-27T13:40:28;7.00;;;2.10;;
72132;SDS011;60008;50.826;6.896;2023-05-27T13:43:20;7.18;;;2.10;;
72132;SDS011;60008;50.826;6.896;2023-05-27T13:46:11;5.65;;;2.20;;
72132;SDS011;60008;50.826;6.896;2023-05-27T13:48:56;5.65;;;1.95;;
72132;SDS011;60008;50.826;6.896;2023-05-27T13:51:47;5.40;;;2.00;;
72132;SDS011;60008;50.826;6.896;2023-05-27T13:54:32;4.18;;;1.90;;
72132;SDS011;60008;50.826;6.896;2023-05-27T13:57:23;7.25;;;2.20;;
72132;SDS011;60008;50.826;6.896;2023-05-27T14:00:08;5.47;;;1.90;;
72132;SDS011;60008;50.826;6.896;2023-05-27T14:03:00;5.80;;;2.30;;
72132;SDS011;60008;50.826;6.896;2023-05-27T14:05:51;7.57;;;3.03;;
72132;SDS011;60008;50.826;6.896;2023-05-27T14:08:37;7.22;;;2.42;;
72132;SDS011;60008;50.826;6.896;2023-05-27T14:11:28;7.75;;;3.00;;
72132;SDS011;60008;50.826;6.896;2023-05-27T14:14:13;7.57;;;2.10;;
72132;SDS011;60008;50.826;6.896;2023-05-27T14:17:04;5.30;;;2.13;;
72132;SDS011;60008;50.826;6.896;2023-05-27T14:19:50;5.30;;;2.00;;
72132;SDS011;60008;50.826;6.896;2023-05-27T14:22:42;5.63;;;2.15;;
72132;SDS011;60008;50.826;6.896;2023-05-27T14:25:34;6.00;;;2.00;;
72132;SDS011;60008;50.826;6.896;2023-05-27T14:28:19;7.53;;;1.98;;
72132;SDS011;60008;50.826;6.896;2023-05-27T14:31:11;5.35;;;2.10;;
72132;SDS011;60008;50.826;6.896;2023-05-27T14:34:02;7.23;;;2.10;;
72132;SDS011;60008;50.826;6.896;2023-05-27T14:36:55;4.93;;;2.00;;
72132;SDS011;60008;50.826;6.896;2023-05-27T14:39:39;4.95;;;2.10;;
72132;SDS011;60008;50.826;6.896;2023-05-27T14:42:30;6.18;;;2.20;;
72132;SDS011;60008;50.826;6.896;2023-05-27T14:45:23;7.47;;;1.90;;
72132;SDS011;60008;50.826;6.896;2023-05-27T14:48:08;4.37;;;1.80;;
72132;SDS011;60008;50.826;6.896;2023-05-27T14:50:59;6.75;;;2.15;;
72132;SDS011;60008;50.826;6.896;2023-05-27T14:53:50;4.45;;;2.15;;
72132;SDS011;60008;50.826;6.896;2023-05-27T14:56:36;5.45;;;2.08;;
72132;SDS011;60008;50.826;6.896;2023-05-27T14:59:27;6.00;;;2.10;;
72132;SDS011;60008;50.826;6.896;2023-05-27T15:02:12;7.67;;;1.63;;
72132;SDS011;60008;50.826;6.896;2023-05-27T15:05:04;6.55;;;2.00;;
72132;SDS011;60008;50.826;6.896;2023-05-27T15:07:50;7.72;;;2.20;;
72132;SDS011;60008;50.826;6.896;2023-05-27T15:10:42;7.50;;;2.35;;
72132;SDS011;60008;50.826;6.896;2023-05-27T15:13:28;5.13;;;2.05;;
72132;SDS011;60008;50.826;6.896;2023-05-27T15:16:19;5.57;;;2.07;;
72132;SDS011;60008;50.826;6.896;2023-05-27T15:19:05;4.63;;;1.70;;
72132;SDS011;60008;50.826;6.896;2023-05-27T15:21:57;5.03;;;1.92;;
72132;SDS011;60008;50.826;6.896;2023-05-27T15:24:42;6.25;;;2.10;;
72132;SDS011;60008;50.826;6.896;2023-05-27T15:27:40;5.82;;;2.17;;
72132;SDS011;60008;50.826;6.896;2023-05-27T15:30:38;5.27;;;1.83;;
72132;SDS011;60008;50.826;6.896;2023-05-27T15:33:30;6.88;;;1.80;;
72132;SDS011;60008;50.826;6.896;2023-05-27T15:36:24;6.60;;;2.30;;
72132;SDS011;60008;50.826;6.896;2023-05-27T15:39:09;4.88;;;1.90;;
72132;SDS011;60008;50.826;6.896;2023-05-27T15:42:02;5.72;;;2.05;;
72132;SDS011;60008;50.826;6.896;2023-05-27T15:44:47;6.20;;;2.27;;
72132;SDS011;60008;50.826;6.896;2023-05-27T15:47:39;6.70;;;2.03;;
72132;SDS011;60008;50.826;6.896;2023-05-27T15:50:24;4.57;;;2.00;;
72132;SDS011;60008;50.826;6.896;2023-05-27T15:53:16;5.28;;;2.00;;
72132;SDS011;60008;50.826;6.896;2023-05-27T15:56:00;7.90;;;1.98;;
72132;SDS011;60008;50.826;6.896;2023-05-27T15:58:51;5.50;;;1.70;;
72132;SDS011;60008;50.826;6.896;2023-05-27T16:01:37;4.22;;;2.03;;
72132;SDS011;60008;50.826;6.896;2023-05-27T16:04:29;5.13;;;2.05;;
72132;SDS011;60008;50.826;6.896;2023-05-27T16:07:17;6.32;;;2.70;;
72132;SDS011;60008;50.826;6.896;2023-05-27T16:10:09;10.88;;;6.13;;
72132;SDS011;60008;50.826;6.896;2023-05-27T16:12:55;5.77;;;2.10;;
72132;SDS011;60008;50.826;6.896;2023-05-27T16:15:47;4.95;;;2.10;;
72132;SDS011;60008;50.826;6.896;2023-05-27T16:18:33;6.65;;;1.63;;
72132;SDS011;60008;50.826;6.896;2023-05-27T16:21:24;5.22;;;1.70;;
72132;SDS011;60008;50.826;6.896;2023-05-27T16:24:10;4.75;;;2.00;;
72132;SDS011;60008;50.826;6.896;2023-05-27T16:27:02;5.53;;;2.07;;
72132;SDS011;60008;50.826;6.896;2023-05-27T16:30:00;5.53;;;2.08;;
72132;SDS011;60008;50.826;6.896;2023-05-27T16:32:52;6.25;;;2.25;;
72132;SDS011;60008;50.826;6.896;2023-05-27T16:35:37;9.40;;;2.50;;
72132;SDS011;60008;50.826;6.896;2023-05-27T16:38:29;5.53;;;2.03;;
72132;SDS011;60008;50.826;6.896;2023-05-27T16:41:14;3.67;;;1.90;;
72132;SDS011;60008;50.826;6.896;2023-05-27T16:44:05;6.00;;;1.77;;
72132;SDS011;60008;50.826;6.896;2023-05-27T16:46:50;5.60;;;2.40;;
72132;SDS011;60008;50.826;6.896;2023-05-27T16:49:41;7.25;;;2.80;;
72132;SDS011;60008;50.826;6.896;2023-05-27T16:52:32;6.78;;;2.20;;
72132;SDS011;60008;50.826;6.896;2023-05-27T16:55:17;4.87;;;2.00;;
72132;SDS011;60008;50.826;6.896;2023-05-27T16:58:10;5.40;;;2.40;;
72132;SDS011;60008;50.826;6.896;2023-05-27T17:00:55;4.18;;;1.88;;
72132;SDS011;60008;50.826;6.896;2023-05-27T17:03:49;6.60;;;2.38;;
72132;SDS011;60008;50.826;6.896;2023-05-27T17:06:34;5.20;;;1.98;;
72132;SDS011;60008;50.826;6.896;2023-05-27T17:09:27;4.37;;;2.20;;
72132;SDS011;60008;50.826;6.896;2023-05-27T17:12:12;6.43;;;2.00;;